Time;durP1;ratioP1;P1;durP2;ratioP2;P2;SDS_P1;SDS_P2;PMS_P1;PMS_P2;Temp;Humidity;BMP_temperature;BMP_pressure;BME280_temperature;BME280_humidity;BME280_pressure;Samples;Min_cycle;Max_cycle;Signal;HPM_P1;HPM_P2
2023/10/21 00:02:08;;;;;;;81.20;38.87;;;10.10;99.90;;;;;;5044602;28;20396;-83
2023/10/21 00:04:34;;;;;;;88.00;42.07;;;10.10;99.90;;;;;;5032240;28;20057;-83
2023/10/21 00:06:59;;;;;;;117.33;48.33;;;10.00;99.90;;;;;;5030817;28;20052;-83
2023/10/21 00:09:25;;;;;;;117.50;48.47;;;10.00;99.90;;;;;;5030950;28;20045;-83
2023/10/21 00:11:51;;;;;;;117.13;48.77;;;10.00;99.90;;;;;;5046529;28;20041;-84
2023/10/21 00:14:17;;;;;;;125.93;51.97;;;9.90;99.90;;;;;;5064149;28;20042;-83
2023/10/21 00:16:43;;;;;;;112.28;48.38;;;9.90;99.90;;;;;;5030253;28;20092;-82
2023/10/21 00:19:10;;;;;;;129.13;55.73;;;9.90;99.90;;;;;;5063899;28;20049;-83
2023/10/21 00:21:37;;;;;;;143.38;56.45;;;9.80;99.90;;;;;;5014733;28;20296;-83
2023/10/21 00:24:03;;;;;;;134.10;55.35;;;9.70;99.90;;;;;;5031408;28;20107;-83
2023/10/21 00:26:28;;;;;;;151.10;62.37;;;9.70;99.90;;;;;;5029930;28;20041;-83
2023/10/21 00:28:54;;;;;;;141.53;57.13;;;9.60;99.90;;;;;;5062405;28;20041;-83
2023/10/21 00:31:20;;;;;;;119.07;51.90;;;9.50;99.90;;;;;;5029907;28;20049;-83
2023/10/21 00:33:46;;;;;;;103.17;46.73;;;9.50;99.90;;;;;;5030948;28;20049;-83
2023/10/21 00:36:12;;;;;;;120.00;52.40;;;9.50;99.90;;;;;;5030345;28;20521;-83
2023/10/21 00:38:37;;;;;;;130.82;54.28;;;9.50;99.90;;;;;;5030982;28;20112;-83
2023/10/21 00:41:03;;;;;;;136.90;57.07;;;9.60;99.90;;;;;;5029280;28;20503;-82
2023/10/21 00:43:38;;;;;;;125.27;55.03;;;9.60;99.90;;;;;;5029993;28;20463;-83
2023/10/21 00:46:26;;;;;;;122.63;53.05;;;9.60;99.90;;;;;;5046440;28;20093;-83
2023/10/21 00:48:52;;;;;;;123.00;51.30;;;9.60;99.90;;;;;;5046809;28;20054;-83
2023/10/21 00:51:19;;;;;;;131.10;54.53;;;9.60;99.90;;;;;;5046452;28;20057;-83
2023/10/21 00:53:46;;;;;;;131.20;55.45;;;9.50;99.90;;;;;;5047325;28;20053;-83
2023/10/21 00:56:12;;;;;;;161.90;60.55;;;9.50;99.90;;;;;;5015310;28;20053;-83
2023/10/21 00:58:38;;;;;;;156.90;62.23;;;9.40;99.90;;;;;;5028159;28;20053;-83
2023/10/21 01:01:08;;;;;;;135.70;55.43;;;9.40;99.90;;;;;;5027578;28;20046;-83
2023/10/21 01:03:34;;;;;;;169.63;61.13;;;9.40;99.90;;;;;;5028449;28;20143;-83
2023/10/21 01:06:00;;;;;;;157.43;60.90;;;9.30;99.90;;;;;;5027731;28;20049;-83
2023/10/21 01:08:26;;;;;;;156.57;60.23;;;9.30;99.90;;;;;;5045023;28;20535;-83
2023/10/21 01:10:52;;;;;;;142.53;58.13;;;9.30;99.90;;;;;;5055978;28;20518;-83
2023/10/21 01:13:18;;;;;;;151.77;62.33;;;9.30;99.90;;;;;;5031270;28;20045;-83
2023/10/21 01:15:44;;;;;;;182.68;65.90;;;9.20;99.90;;;;;;5026750;28;20046;-82
2023/10/21 01:18:10;;;;;;;151.82;61.13;;;9.20;99.90;;;;;;5044323;28;20137;-83
2023/10/21 01:20:41;;;;;;;154.50;59.53;;;9.20;99.90;;;;;;5044409;28;20042;-85
2023/10/21 01:23:07;;;;;;;145.82;56.42;;;9.20;99.90;;;;;;5028769;28;20050;-86
2023/10/21 01:25:36;;;;;;;151.75;60.58;;;9.20;99.90;;;;;;5028551;28;20096;-86
2023/10/21 01:28:02;;;;;;;178.60;63.97;;;9.50;99.90;;;;;;5028474;28;20060;-85
2023/10/21 01:30:28;;;;;;;130.33;52.90;;;9.00;99.90;;;;;;5028748;28;20418;-85
2023/10/21 01:32:56;;;;;;;144.53;56.27;;;9.10;99.90;;;;;;5044783;28;20667;-85
2023/10/21 01:35:22;;;;;;;144.00;55.28;;;9.10;99.90;;;;;;5013298;28;20050;-85
2023/10/21 01:37:48;;;;;;;163.07;60.90;;;8.50;99.90;;;;;;5012374;28;20104;-88
2023/10/21 01:40:13;;;;;;;157.40;58.20;;;9.10;99.90;;;;;;5044938;28;20072;-85
2023/10/21 01:42:40;;;;;;;150.33;57.40;;;9.10;99.90;;;;;;5028529;28;20487;-85
2023/10/21 01:45:09;;;;;;;155.35;56.03;;;9.00;99.90;;;;;;5028315;28;20056;-86
2023/10/21 01:47:36;;;;;;;158.50;57.60;;;9.10;99.90;;;;;;5027108;28;20135;-86
2023/10/21 01:50:08;;;;;;;121.30;49.88;;;9.10;99.90;;;;;;5027755;28;20053;-84
2023/10/21 01:52:44;;;;;;;116.97;52.30;;;9.10;99.90;;;;;;5045021;28;20053;-85
2023/10/21 01:55:10;;;;;;;108.93;48.75;;;9.00;99.90;;;;;;5031884;28;20038;-85
2023/10/21 01:57:36;;;;;;;117.28;49.95;;;9.10;99.90;;;;;;5032116;28;20077;-85
2023/10/21 02:00:11;;;;;;;123.20;51.53;;;9.70;99.90;;;;;;5016173;28;20100;-86
2023/10/21 02:02:37;;;;;;;117.20;49.95;;;9.10;99.90;;;;;;5031692;28;20050;-85
2023/10/21 02:05:06;;;;;;;108.60;48.38;;;9.20;99.90;;;;;;5031693;28;20385;-85
2023/10/21 02:07:37;;;;;;;117.30;52.25;;;9.20;99.90;;;;;;5048416;28;20540;-86
2023/10/21 02:10:08;;;;;;;99.07;46.40;;;9.20;99.90;;;;;;5031783;28;20076;-86
2023/10/21 02:12:37;;;;;;;122.53;54.75;;;9.30;99.90;;;;;;5016013;28;20046;-86
2023/10/21 02:15:03;;;;;;;119.05;51.30;;;9.30;99.90;;;;;;5031612;28;20104;-85
2023/10/21 02:17:31;;;;;;;107.53;45.83;;;9.30;99.90;;;;;;5016223;28;20046;-85
2023/10/21 02:19:56;;;;;;;117.35;50.53;;;9.20;99.90;;;;;;4998348;28;20494;-91
2023/10/21 02:22:31;;;;;;;120.70;50.77;;;9.30;99.90;;;;;;5048367;28;20042;-85
2023/10/21 02:25:05;;;;;;;122.55;52.03;;;9.30;99.90;;;;;;5031019;28;20404;-92
2023/10/21 02:27:30;;;;;;;126.57;54.60;;;9.30;99.90;;;;;;5047954;28;20050;-85
2023/10/21 02:29:56;;;;;;;157.73;53.43;;;9.30;99.90;;;;;;5048044;28;20053;-89
2023/10/21 02:32:22;;;;;;;101.50;46.67;;;9.30;99.90;;;;;;5047818;28;20042;-85
2023/10/21 02:34:48;;;;;;;134.87;56.83;;;9.30;99.90;;;;;;5031002;28;20046;-86
2023/10/21 02:37:13;;;;;;;118.90;48.93;;;9.30;99.90;;;;;;5015458;28;20045;-85
2023/10/21 02:39:39;;;;;;;99.17;47.00;;;9.30;99.90;;;;;;5015616;28;20499;-85
2023/10/21 02:42:05;;;;;;;111.57;47.07;;;9.30;99.90;;;;;;5031289;28;20046;-85
2023/10/21 02:44:31;;;;;;;115.07;50.13;;;9.40;99.90;;;;;;5048066;28;20312;-85
2023/10/21 02:47:01;;;;;;;114.97;51.17;;;9.30;99.90;;;;;;5031292;28;20499;-86
2023/10/21 02:49:27;;;;;;;100.57;46.60;;;9.40;99.90;;;;;;5048101;28;20058;-85
2023/10/21 02:51:53;;;;;;;103.30;47.83;;;9.40;99.90;;;;;;5047803;28;20038;-86
2023/10/21 02:54:19;;;;;;;100.30;46.27;;;9.30;99.90;;;;;;5031138;28;20042;-85
2023/10/21 02:56:44;;;;;;;100.27;46.00;;;9.30;99.90;;;;;;5031327;28;20096;-85
2023/10/21 02:59:10;;;;;;;82.70;42.53;;;9.30;99.90;;;;;;5031075;28;20136;-85
2023/10/21 03:01:36;;;;;;;106.13;49.17;;;9.30;99.90;;;;;;5030852;28;20056;-83
2023/10/21 03:04:02;;;;;;;107.75;48.95;;;9.30;99.90;;;;;;5030433;28;20132;-90
2023/10/21 03:06:33;;;;;;;108.23;48.07;;;9.30;99.90;;;;;;5014126;28;20140;-85
2023/10/21 03:09:02;;;;;;;94.90;43.63;;;9.30;99.90;;;;;;5030915;28;20272;-85
2023/10/21 03:11:32;;;;;;;101.80;45.90;;;10.10;99.90;;;;;;5030800;28;20404;-85
2023/10/21 03:13:58;;;;;;;102.03;45.17;;;9.40;99.90;;;;;;5015354;28;20046;-86
2023/10/21 03:16:24;;;;;;;96.03;43.77;;;9.40;99.90;;;;;;5046968;28;20046;-85
2023/10/21 03:18:52;;;;;;;108.27;46.73;;;9.40;99.90;;;;;;5015437;28;20483;-85
2023/10/21 03:21:18;;;;;;;107.00;47.13;;;9.40;99.90;;;;;;5046814;28;20053;-86
2023/10/21 03:23:46;;;;;;;120.10;49.13;;;9.40;99.90;;;;;;5015287;28;20046;-85
2023/10/21 03:26:12;;;;;;;85.25;40.90;;;9.40;99.90;;;;;;5029853;28;20046;-89
2023/10/21 03:28:39;;;;;;;90.80;41.60;;;9.40;99.90;;;;;;5046931;28;20049;-87
2023/10/21 03:31:05;;;;;;;;;;;9.30;99.90;;;;;;5046975;28;20050;-92
2023/10/21 03:33:31;;;;;;;101.95;42.75;;;9.30;99.90;;;;;;5046673;28;19921;-85
2023/10/21 03:36:04;;;;;;;78.65;39.38;;;9.30;99.90;;;;;;5029666;28;20057;-85
2023/10/21 03:38:30;;;;;;;95.90;42.72;;;9.30;99.90;;;;;;5030044;28;20155;-85
2023/10/21 03:41:10;;;;;;;90.90;41.55;;;9.30;99.90;;;;;;5045828;28;20060;-89
2023/10/21 03:43:36;;;;;;;85.13;41.58;;;8.60;99.90;;;;;;5046474;28;20054;-86
2023/10/21 03:46:04;;;;;;;97.03;43.47;;;9.30;99.90;;;;;;5046455;28;20085;-87
2023/10/21 03:48:33;;;;;;;84.03;40.10;;;8.70;99.90;;;;;;5013758;28;20045;-85
2023/10/21 03:51:04;;;;;;;82.65;40.13;;;9.30;99.90;;;;;;5013453;28;20129;-86
2023/10/21 03:53:33;;;;;;;68.70;36.50;;;9.30;99.90;;;;;;5046763;28;20073;-86
2023/10/21 03:56:05;;;;;;;81.28;37.08;;;9.30;99.90;;;;;;5029340;28;20056;-86
2023/10/21 03:58:33;;;;;;;86.28;38.92;;;9.80;99.90;;;;;;5030106;28;20509;-85
2023/10/21 04:00:59;;;;;;;91.38;38.10;;;8.70;99.90;;;;;;5045791;28;20103;-86
2023/10/21 04:03:26;;;;;;;76.82;35.22;;;9.30;99.90;;;;;;5029309;28;20046;-85
2023/10/21 04:05:53;;;;;;;;;;;9.30;99.90;;;;;;5046836;28;20593;-85
2023/10/21 04:08:19;;;;;;;74.50;36.67;;;9.30;99.90;;;;;;5029644;28;19928;-86
2023/10/21 04:10:45;;;;;;;75.25;35.70;;;9.30;99.90;;;;;;5029733;28;20085;-85
2023/10/21 04:13:13;;;;;;;73.43;36.97;;;9.30;99.90;;;;;;5028908;28;20093;-91
2023/10/21 04:15:39;;;;;;;76.18;37.05;;;9.30;99.90;;;;;;5045740;28;20112;-84
2023/10/21 04:18:05;;;;;;;76.37;34.57;;;9.40;99.90;;;;;;5029308;28;20057;-84
2023/10/21 04:20:54;;;;;;;66.60;33.22;;;9.40;99.90;;;;;;5028759;28;20073;-85
2023/10/21 04:23:24;;;;;;;74.60;33.67;;;9.40;99.90;;;;;;5045730;28;20140;-86
2023/10/21 04:26:10;;;;;;;76.13;33.15;;;9.30;99.90;;;;;;5044996;28;20100;-86
2023/10/21 04:28:39;;;;;;;66.38;33.17;;;9.30;99.90;;;;;;4995507;28;20140;-85
2023/10/21 04:31:05;;;;;;;66.00;32.85;;;9.30;99.90;;;;;;5028967;28;20137;-85
2023/10/21 04:33:31;;;;;;;64.83;31.20;;;9.40;99.90;;;;;;5028954;28;20084;-85
2023/10/21 04:35:59;;;;;;;64.43;30.30;;;9.40;99.90;;;;;;5029043;28;20042;-86
2023/10/21 04:38:26;;;;;;;68.32;31.85;;;9.40;99.90;;;;;;5013648;28;20133;-85
2023/10/21 04:40:56;;;;;;;56.65;30.42;;;9.40;99.90;;;;;;5013183;28;20539;-86
2023/10/21 04:43:21;;;;;;;66.68;31.50;;;9.40;99.90;;;;;;5029067;28;20052;-85
2023/10/21 04:45:47;;;;;;;62.40;30.83;;;9.40;99.90;;;;;;5045666;28;20132;-85
2023/10/21 04:48:13;;;;;;;65.00;30.07;;;9.40;99.90;;;;;;5045326;28;20563;-86
2023/10/21 04:50:41;;;;;;;64.43;31.10;;;9.40;99.90;;;;;;5028535;28;20411;-85
2023/10/21 04:53:07;;;;;;;65.63;31.58;;;9.40;99.90;;;;;;5029103;28;20073;-85
2023/10/21 04:55:35;;;;;;;57.13;28.53;;;9.40;99.90;;;;;;5029102;28;20510;-85
2023/10/21 04:58:03;;;;;;;62.10;31.50;;;9.40;99.90;;;;;;5029031;28;20082;-85
2023/10/21 05:00:29;;;;;;;58.30;28.67;;;9.40;99.90;;;;;;5044518;28;20045;-86
2023/10/21 05:02:57;;;;;;;63.47;28.67;;;9.70;99.90;;;;;;5028730;28;20052;-85
2023/10/21 05:05:24;;;;;;;57.35;27.95;;;9.40;99.90;;;;;;5045208;28;20054;-86
2023/10/21 05:07:52;;;;;;;54.50;27.40;;;9.50;99.90;;;;;;5028803;28;20500;-86
2023/10/21 05:10:18;;;;;;;47.55;26.48;;;9.50;99.90;;;;;;5028406;28;20046;-85
2023/10/21 05:12:44;;;;;;;48.95;27.23;;;9.60;99.90;;;;;;5029101;28;20049;-85
2023/10/21 05:15:10;;;;;;;49.17;24.70;;;9.60;99.90;;;;;;5045370;28;20192;-85
2023/10/21 05:17:36;;;;;;;49.15;25.83;;;9.60;99.90;;;;;;5029124;28;20517;-86
2023/10/21 05:20:05;;;;;;;52.00;26.63;;;9.70;99.90;;;;;;5046175;28;20085;-86
2023/10/21 05:22:38;;;;;;;57.03;27.02;;;9.60;99.90;;;;;;4995626;28;20050;-86
2023/10/21 05:25:17;;;;;;;51.92;26.88;;;9.70;99.90;;;;;;5028476;28;20050;-86
2023/10/21 05:27:45;;;;;;;54.92;28.42;;;9.70;99.90;;;;;;5045140;28;20392;-86
2023/10/21 05:30:12;;;;;;;48.95;25.40;;;9.70;99.90;;;;;;4998706;28;20070;-87
2023/10/21 05:32:50;;;;;;;43.33;24.75;;;9.70;99.90;;;;;;5016684;28;20045;-84
2023/10/21 05:35:19;;;;;;;44.60;22.65;;;9.80;99.90;;;;;;5033101;28;20107;-84
2023/10/21 05:37:47;;;;;;;46.83;24.97;;;9.70;99.90;;;;;;5048806;28;20108;-84
2023/10/21 05:40:13;;;;;;;48.45;26.13;;;9.80;99.90;;;;;;5048783;28;20403;-83
2023/10/21 05:42:39;;;;;;;46.28;24.00;;;9.80;99.90;;;;;;5032160;28;20054;-86
2023/10/21 05:45:08;;;;;;;55.20;27.25;;;9.70;99.90;;;;;;5049176;28;20042;-86
2023/10/21 05:47:39;;;;;;;46.55;25.60;;;9.80;99.90;;;;;;5047328;28;20108;-87
2023/10/21 05:50:05;;;;;;;57.75;27.15;;;9.80;99.90;;;;;;5030940;28;20081;-87
2023/10/21 05:52:31;;;;;;;47.28;26.15;;;9.80;99.90;;;;;;5030997;28;20483;-86
2023/10/21 05:54:57;;;;;;;45.17;25.47;;;9.90;99.90;;;;;;5031517;28;20056;-81
2023/10/21 05:57:23;;;;;;;43.70;24.97;;;9.90;99.90;;;;;;5048562;28;20088;-81
2023/10/21 05:59:48;;;;;;;47.53;24.93;;;9.90;99.90;;;;;;5015686;28;20046;-83
2023/10/21 06:02:14;;;;;;;41.27;23.97;;;9.90;99.90;;;;;;5015439;28;20149;-84
2023/10/21 06:04:40;;;;;;;48.63;24.57;;;9.90;99.90;;;;;;5031142;28;20042;-83
2023/10/21 06:07:06;;;;;;;47.30;23.67;;;9.90;99.90;;;;;;5031343;28;20137;-81
2023/10/21 06:09:32;;;;;;;53.65;26.38;;;10.00;99.90;;;;;;5030688;28;20045;-84
2023/10/21 06:11:59;;;;;;;48.25;24.60;;;10.00;99.90;;;;;;5031710;28;20046;-84
2023/10/21 06:14:30;;;;;;;48.17;25.98;;;9.90;99.90;;;;;;5031980;28;20088;-84
2023/10/21 06:16:55;;;;;;;45.30;24.77;;;9.90;99.90;;;;;;5032160;28;20446;-84
2023/10/21 06:19:21;;;;;;;44.83;24.67;;;10.00;99.90;;;;;;5031911;28;20099;-84
2023/10/21 06:21:47;;;;;;;45.73;23.83;;;10.00;99.90;;;;;;5031088;28;20484;-84
2023/10/21 06:24:12;;;;;;;59.70;28.63;;;10.00;99.90;;;;;;5016316;28;20084;-84
2023/10/21 06:26:38;;;;;;;41.63;23.57;;;10.00;99.90;;;;;;5047845;28;20407;-84
2023/10/21 06:29:04;;;;;;;50.15;24.98;;;9.90;99.90;;;;;;5031759;28;20056;-84
2023/10/21 06:31:31;;;;;;;49.53;24.50;;;10.00;99.90;;;;;;5048127;28;20088;-93
2023/10/21 06:33:59;;;;;;;52.28;26.52;;;10.00;99.90;;;;;;5031349;28;20784;-84
2023/10/21 06:36:25;;;;;;;47.13;25.02;;;10.00;99.90;;;;;;5031616;28;20558;-84
2023/10/21 06:38:53;;;;;;;41.20;23.80;;;10.10;99.90;;;;;;5030699;28;20283;-84
2023/10/21 06:41:21;;;;;;;42.50;24.52;;;10.10;99.90;;;;;;5015792;28;20049;-84
2023/10/21 06:43:47;;;;;;;46.03;26.02;;;10.10;99.90;;;;;;5031007;28;20056;-85
2023/10/21 06:46:13;;;;;;;44.13;24.67;;;10.00;99.90;;;;;;5031433;28;20391;-84
2023/10/21 06:48:39;;;;;;;50.80;26.40;;;10.10;99.90;;;;;;5030757;28;20054;-84
2023/10/21 06:51:05;;;;;;;48.17;24.67;;;9.50;99.90;;;;;;5047952;28;20510;-84
2023/10/21 06:53:31;;;;;;;50.17;26.33;;;10.10;99.90;;;;;;5047892;28;20046;-85
2023/10/21 06:55:58;;;;;;;40.33;22.03;;;10.10;99.90;;;;;;5031024;28;20061;-85
2023/10/21 06:58:27;;;;;;;41.42;23.60;;;10.10;99.90;;;;;;5031232;28;20069;-85
2023/10/21 07:00:52;;;;;;;49.60;26.38;;;10.20;99.90;;;;;;5030666;28;20107;-84
2023/10/21 07:03:18;;;;;;;63.87;29.00;;;10.20;99.90;;;;;;5031115;28;20125;-84
2023/10/21 07:05:46;;;;;;;42.20;24.00;;;10.20;99.90;;;;;;5015385;28;20048;-85
2023/10/21 07:08:14;;;;;;;50.50;26.77;;;10.20;99.90;;;;;;5030949;28;20129;-84
2023/10/21 07:10:40;;;;;;;41.72;24.52;;;10.20;99.90;;;;;;5015238;28;20081;-85
2023/10/21 07:13:06;;;;;;;45.20;25.03;;;10.30;99.90;;;;;;5015439;28;20081;-85
2023/10/21 07:15:32;;;;;;;48.80;24.50;;;10.10;99.90;;;;;;5047315;28;20101;-84
2023/10/21 07:17:57;;;;;;;46.33;25.27;;;10.40;99.90;;;;;;5014167;28;20096;-85
2023/10/21 07:20:25;;;;;;;41.67;23.47;;;10.40;99.90;;;;;;5030600;28;20487;-84
2023/10/21 07:22:54;;;;;;;49.10;23.92;;;10.40;99.90;;;;;;5047092;28;20293;-85
2023/10/21 07:25:20;;;;;;;38.40;22.33;;;10.40;99.90;;;;;;5047291;28;20053;-84
2023/10/21 07:27:49;;;;;;;46.10;25.60;;;10.50;99.90;;;;;;5030479;28;20053;-85
2023/10/21 07:30:15;;;;;;;46.83;24.23;;;10.50;99.90;;;;;;5030542;28;20096;-85
2023/10/21 07:32:41;;;;;;;47.40;24.60;;;10.60;99.90;;;;;;5030351;28;20395;-85
2023/10/21 07:35:07;;;;;;;42.22;24.20;;;10.60;99.90;;;;;;5046606;28;20133;-85
2023/10/21 07:37:33;;;;;;;46.53;24.52;;;10.70;99.90;;;;;;5047076;28;20088;-84
2023/10/21 07:39:59;;;;;;;42.25;24.15;;;10.70;99.90;;;;;;5030108;28;20073;-84
2023/10/21 07:42:25;;;;;;;43.30;23.20;;;10.70;99.90;;;;;;5030387;28;20052;-84
2023/10/21 07:44:53;;;;;;;53.97;26.13;;;10.80;99.90;;;;;;5030184;28;20076;-84
2023/10/21 07:47:20;;;;;;;46.92;26.08;;;10.80;99.90;;;;;;5046934;28;20065;-85
2023/10/21 07:49:51;;;;;;;41.50;23.48;;;10.00;99.90;;;;;;5014584;28;20053;-85
2023/10/21 07:52:17;;;;;;;43.10;22.40;;;10.90;99.90;;;;;;5029611;28;20049;-84
2023/10/21 07:54:46;;;;;;;42.63;22.67;;;10.90;99.90;;;;;;5046578;28;20447;-88
2023/10/21 07:57:11;;;;;;;44.40;23.98;;;11.00;99.90;;;;;;5030025;28;20086;-85
2023/10/21 07:59:37;;;;;;;46.40;25.97;;;11.00;99.90;;;;;;5046530;28;20119;-84
2023/10/21 08:02:03;;;;;;;41.47;25.13;;;11.10;99.90;;;;;;5046440;28;20472;-85
2023/10/21 08:04:29;;;;;;;43.33;22.33;;;11.10;99.90;;;;;;5029993;28;20038;-85
2023/10/21 08:06:55;;;;;;;43.03;23.23;;;11.20;99.90;;;;;;5029766;28;20046;-84
2023/10/21 08:09:21;;;;;;;38.03;22.30;;;11.20;99.90;;;;;;5014461;28;20550;-84
2023/10/21 08:11:47;;;;;;;38.80;23.53;;;11.30;99.90;;;;;;5045962;28;20042;-85
2023/10/21 08:14:16;;;;;;;39.40;22.60;;;11.40;99.90;;;;;;5046128;28;20049;-84
2023/10/21 08:16:42;;;;;;;39.70;21.35;;;11.90;99.90;;;;;;5046415;28;20054;-84
2023/10/21 08:19:09;;;;;;;42.10;22.23;;;11.60;99.90;;;;;;5029146;28;20049;-84
2023/10/21 08:21:35;;;;;;;37.13;21.65;;;11.70;99.90;;;;;;5029402;28;20050;-85
2023/10/21 08:24:07;;;;;;;34.97;22.30;;;11.80;99.90;;;;;;5029453;28;20133;-85
2023/10/21 08:26:33;;;;;;;33.35;21.02;;;11.90;99.90;;;;;;5029348;28;20484;-85
2023/10/21 08:28:59;;;;;;;34.30;20.83;;;11.90;99.90;;;;;;5029350;28;20049;-85
2023/10/21 08:31:27;;;;;;;34.63;21.20;;;12.00;99.90;;;;;;5029843;28;20050;-84
2023/10/21 08:33:56;;;;;;;33.55;21.08;;;11.40;99.90;;;;;;5045895;28;20081;-85
2023/10/21 08:36:22;;;;;;;40.63;22.02;;;12.20;99.90;;;;;;5029397;28;20136;-85
2023/10/21 08:38:51;;;;;;;31.37;20.17;;;12.30;99.90;;;;;;5028887;28;20085;-84
2023/10/21 08:41:17;;;;;;;34.45;18.70;;;12.50;99.90;;;;;;5029122;28;20787;-85
2023/10/21 08:43:48;;;;;;;31.02;19.90;;;12.70;99.90;;;;;;5013854;28;20053;-84
2023/10/21 08:46:18;;;;;;;28.20;17.95;;;12.80;99.90;;;;;;5044879;28;20504;-85
2023/10/21 08:48:48;;;;;;;29.73;17.02;;;12.90;99.90;;;;;;5013745;28;20054;-84
2023/10/21 08:51:21;;;;;;;22.40;15.30;;;13.00;99.90;;;;;;5045338;28;20089;-85
2023/10/21 08:53:52;;;;;;;21.42;15.10;;;13.10;99.90;;;;;;5029157;28;20403;-84
2023/10/21 08:56:18;;;;;;;24.80;14.95;;;13.20;99.90;;;;;;5045842;28;20046;-85
2023/10/21 08:58:43;;;;;;;20.88;14.20;;;13.20;99.90;;;;;;5013814;28;20092;-84
2023/10/21 09:01:14;;;;;;;18.53;13.50;;;13.30;99.90;;;;;;5028726;28;20491;-85
2023/10/21 09:03:43;;;;;;;20.92;13.98;;;13.40;99.90;;;;;;5029142;28;20849;-84
2023/10/21 09:06:11;;;;;;;20.88;13.82;;;13.80;99.90;;;;;;5045381;28;20483;-85
2023/10/21 09:08:41;;;;;;;19.48;12.43;;;12.80;99.90;;;;;;5013533;28;20046;-85
2023/10/21 09:11:08;;;;;;;17.63;12.57;;;13.60;99.90;;;;;;5044766;28;20403;-85
2023/10/21 09:13:38;;;;;;;17.80;11.73;;;13.60;99.90;;;;;;5045484;28;20050;-84
2023/10/21 09:16:20;;;;;;;16.23;12.50;;;13.70;99.90;;;;;;5013085;28;20053;-85
2023/10/21 09:18:59;;;;;;;15.30;11.30;;;13.80;99.90;;;;;;5029069;28;20153;-85
2023/10/21 09:21:40;;;;;;;15.05;10.27;;;13.60;99.90;;;;;;5045127;28;20514;-84
2023/10/21 09:24:09;;;;;;;13.27;10.00;;;13.90;99.90;;;;;;5028314;28;20049;-84
2023/10/21 09:26:47;;;;;;;16.38;10.20;;;13.90;99.90;;;;;;5028606;28;20050;-84
2023/10/21 09:29:18;;;;;;;12.85;8.95;;;13.90;99.90;;;;;;5028676;28;20081;-85
2023/10/21 09:31:49;;;;;;;12.38;8.85;;;13.50;99.90;;;;;;5028820;28;20065;-85
2023/10/21 09:34:30;;;;;;;14.48;8.25;;;13.80;99.90;;;;;;5045104;28;20045;-85
2023/10/21 09:36:58;;;;;;;10.48;7.35;;;13.70;99.90;;;;;;5028730;28;20054;-85
2023/10/21 09:39:26;;;;;;;12.10;7.78;;;13.60;99.90;;;;;;5028863;28;20065;-85
2023/10/21 09:41:52;;;;;;;12.07;7.45;;;13.60;99.90;;;;;;5013020;28;20133;-85
2023/10/21 09:44:20;;;;;;;10.77;7.40;;;13.60;99.90;;;;;;5012989;28;20410;-85
2023/10/21 09:46:47;;;;;;;8.82;6.97;;;13.60;99.90;;;;;;5028748;28;20050;-85
2023/10/21 09:49:16;;;;;;;;;;;13.60;99.90;;;;;;5045039;28;20061;-85
2023/10/21 09:52:09;;;;;;;10.13;6.63;;;13.80;99.90;;;;;;5045384;28;19928;-85
2023/10/21 09:55:00;;;;;;;10.35;6.28;;;13.50;99.90;;;;;;5012191;28;20050;-85
2023/10/21 09:57:26;;;;;;;6.78;5.85;;;13.40;99.90;;;;;;5028663;28;20092;-85
2023/10/21 09:59:53;;;;;;;11.98;6.38;;;13.40;99.90;;;;;;5027901;28;20538;-85
2023/10/21 10:02:20;;;;;;;8.80;5.75;;;13.40;99.90;;;;;;5028308;28;20060;-85
2023/10/21 10:04:48;;;;;;;7.22;5.30;;;13.30;99.90;;;;;;5028518;28;20480;-85
2023/10/21 10:07:21;;;;;;;7.93;5.82;;;13.30;99.90;;;;;;5044887;28;20038;-85
2023/10/21 10:09:48;;;;;;;7.28;4.95;;;13.30;99.90;;;;;;5028473;28;20049;-85
2023/10/21 10:12:23;;;;;;;10.93;5.50;;;13.30;99.90;;;;;;5028131;28;20392;-85
2023/10/21 10:14:50;;;;;;;6.20;4.15;;;13.30;99.90;;;;;;5030472;28;20492;-85
2023/10/21 10:17:48;;;;;;;6.63;4.75;;;13.30;99.90;;;;;;5031676;28;20181;-85
2023/10/21 10:20:19;;;;;;;5.70;4.53;;;13.30;99.90;;;;;;5031574;28;20064;-85
2023/10/21 10:22:49;;;;;;;6.18;4.22;;;13.30;99.90;;;;;;5031994;28;20459;-85
2023/10/21 10:25:30;;;;;;;5.85;4.38;;;13.30;99.90;;;;;;5014636;28;20076;-85
2023/10/21 10:28:04;;;;;;;4.30;3.90;;;13.30;99.90;;;;;;5015225;28;20634;-85
2023/10/21 10:30:31;;;;;;;4.20;3.80;;;13.30;99.90;;;;;;5016136;28;20058;-84
2023/10/21 10:33:06;;;;;;;4.13;3.30;;;13.20;99.90;;;;;;5016117;28;20084;-85
2023/10/21 10:35:41;;;;;;;3.95;3.10;;;13.20;99.90;;;;;;5031426;28;20104;-85
2023/10/21 10:38:27;;;;;;;4.45;2.90;;;13.20;99.90;;;;;;5047582;28;20058;-85
2023/10/21 10:41:07;;;;;;;4.05;2.42;;;13.30;99.90;;;;;;5031428;28;20054;-84
2023/10/21 10:43:33;;;;;;;3.58;1.92;;;13.20;99.90;;;;;;5031187;28;20053;-84
2023/10/21 10:46:02;;;;;;;3.53;2.38;;;13.20;99.90;;;;;;5048030;28;20049;-85
2023/10/21 10:48:29;;;;;;;2.03;1.80;;;13.20;99.90;;;;;;5047295;28;20050;-84
2023/10/21 10:51:00;;;;;;;2.40;1.70;;;13.30;99.90;;;;;;5030834;28;20064;-85
2023/10/21 10:53:28;;;;;;;2.80;1.80;;;13.40;99.90;;;;;;5030820;28;20057;-85
2023/10/21 10:55:54;;;;;;;1.95;1.75;;;13.30;99.90;;;;;;5031271;28;20093;-85
2023/10/21 10:58:21;;;;;;;4.18;1.77;;;13.30;99.90;;;;;;5047707;28;20439;-85
2023/10/21 11:00:47;;;;;;;;;;;13.30;99.90;;;;;;5031341;28;20050;-85
2023/10/21 11:03:22;;;;;;;1.88;1.67;;;13.30;99.90;;;;;;5030402;28;20375;-85
2023/10/21 11:05:48;;;;;;;2.03;1.52;;;13.30;99.90;;;;;;5047772;28;20042;-84
2023/10/21 11:08:15;;;;;;;1.83;1.60;;;13.40;99.90;;;;;;5030815;28;20041;-85
2023/10/21 11:10:41;;;;;;;2.13;1.67;;;13.40;99.90;;;;;;5047636;28;20060;-85
2023/10/21 11:13:07;;;;;;;2.90;1.63;;;13.40;99.90;;;;;;5030953;28;20476;-85
2023/10/21 11:15:54;;;;;;;3.80;1.70;;;13.30;99.90;;;;;;5030400;28;20094;-85
2023/10/21 11:18:21;;;;;;;2.90;1.53;;;13.30;99.90;;;;;;5030388;28;20053;-85
2023/10/21 11:20:50;;;;;;;3.22;1.50;;;13.30;99.90;;;;;;5015190;28;20049;-85
2023/10/21 11:23:20;;;;;;;3.78;1.50;;;13.30;99.90;;;;;;5014034;28;20507;-85
2023/10/21 11:25:49;;;;;;;2.78;1.33;;;13.30;99.90;;;;;;5014365;28;20046;-84
2023/10/21 11:28:16;;;;;;;2.35;1.40;;;13.20;99.90;;;;;;5046670;28;20107;-85
2023/10/21 11:30:44;;;;;;;1.70;1.50;;;13.10;99.90;;;;;;5013754;28;20054;-84
2023/10/21 11:33:10;;;;;;;4.03;1.50;;;13.10;99.90;;;;;;5047408;28;20135;-85
2023/10/21 11:35:40;;;;;;;2.53;1.15;;;12.50;99.90;;;;;;5030314;28;20093;-85
2023/10/21 11:38:10;;;;;;;2.45;1.20;;;12.40;99.90;;;;;;5015111;28;20049;-84
2023/10/21 11:40:36;;;;;;;2.80;1.20;;;13.20;99.90;;;;;;5013444;28;20042;-84
2023/10/21 11:43:11;;;;;;;2.63;1.10;;;13.20;99.90;;;;;;5030057;28;20157;-84
2023/10/21 11:45:38;;;;;;;4.28;1.83;;;13.20;99.90;;;;;;5014641;28;20049;-84
2023/10/21 11:48:10;;;;;;;1.00;0.90;;;13.20;99.90;;;;;;5046588;28;20093;-85
2023/10/21 11:50:42;;;;;;;3.78;1.33;;;13.20;99.90;;;;;;5030048;28;20480;-84
2023/10/21 11:53:12;;;;;;;1.20;1.10;;;12.30;99.90;;;;;;5046893;28;20136;-84
2023/10/21 12:15:25;;;;;;;3.38;1.30;;;13.10;99.90;;;;;;5029741;28;20049;-84
2023/10/21 12:33:42;;;;;;;1.80;1.30;;;13.50;99.90;;;;;;5046246;28;20058;-84
2023/10/21 12:38:56;;;;;;;1.05;0.88;;;13.80;99.90;;;;;;5046322;28;20046;-85
2023/10/21 12:41:28;;;;;;;1.50;1.02;;;13.80;99.90;;;;;;5028833;28;20072;-85
2023/10/21 12:44:00;;;;;;;1.48;0.90;;;14.00;99.90;;;;;;5014030;28;20049;-85
2023/10/21 12:46:30;;;;;;;2.20;0.90;;;14.20;99.90;;;;;;5045807;28;20050;-85
2023/10/21 12:48:57;;;;;;;2.05;1.05;;;14.20;99.90;;;;;;5045408;28;20069;-84
2023/10/21 12:51:26;;;;;;;4.50;1.10;;;14.30;99.90;;;;;;5028852;28;20053;-85
2023/10/21 12:53:52;;;;;;;2.38;1.02;;;14.30;99.90;;;;;;5045729;28;20046;-85
2023/10/21 12:56:18;;;;;;;4.55;1.00;;;14.20;99.90;;;;;;5029108;28;20052;-84
2023/10/21 12:58:44;;;;;;;1.38;0.90;;;14.10;99.90;;;;;;5028258;28;20484;-84
2023/10/21 13:01:14;;;;;;;2.25;1.10;;;14.00;99.90;;;;;;5012191;28;20042;-84
2023/10/21 13:03:42;;;;;;;3.72;1.25;;;14.00;99.90;;;;;;5028859;28;20045;-84
2023/10/21 13:06:09;;;;;;;1.77;1.00;;;14.00;99.90;;;;;;5028797;28;20570;-84
2023/10/21 13:08:41;;;;;;;2.97;1.17;;;13.90;99.90;;;;;;5012379;28;20137;-85
2023/10/21 13:11:08;;;;;;;2.15;0.70;;;13.90;99.90;;;;;;5013697;28;20144;-84
2023/10/21 13:13:37;;;;;;;3.13;1.52;;;13.90;99.90;;;;;;5045383;28;20542;-85
2023/10/21 13:16:04;;;;;;;3.58;1.33;;;13.80;99.90;;;;;;5044235;28;20054;-84
2023/10/21 13:18:31;;;;;;;2.50;1.00;;;13.80;99.90;;;;;;5028665;28;20060;-85
2023/10/21 13:20:59;;;;;;;1.65;1.10;;;13.80;99.90;;;;;;5028647;28;20089;-85